createdAt,value
2019-04-01T00:01:31.119Z,14.35
2019-04-01T00:06:37.665Z,11.80
2019-04-01T00:11:43.995Z,16.02
2019-04-01T00:16:50.262Z,14.25
2019-04-01T00:21:56.443Z,17.10
2019-04-01T00:27:02.619Z,15.38
2019-04-01T00:32:08.872Z,12.82
2019-04-01T00:37:14.849Z,17.20
2019-04-01T00:42:42.657Z,12.15
2019-04-01T00:47:48.809Z,8.05
2019-04-01T00:52:54.966Z,9.93
2019-04-01T00:58:00.964Z,10.55
2019-04-01T01:03:07.175Z,12.03
2019-04-01T01:08:13.292Z,11.15
2019-04-01T01:13:19.507Z,8.90
2019-04-01T01:18:25.778Z,8.88
2019-04-01T01:23:31.975Z,9.15
2019-04-01T01:28:37.923Z,9.10
2019-04-01T01:33:43.903Z,11.55
2019-04-01T01:38:50.374Z,9.85
2019-04-01T01:43:56.461Z,7.75
2019-04-01T01:49:02.435Z,7.28
2019-04-01T01:54:08.409Z,8.50
2019-04-01T01:59:14.586Z,8.35
2019-04-01T02:04:20.724Z,8.13
2019-04-01T02:09:26.737Z,5.87
2019-04-01T02:14:32.922Z,8.30
2019-04-01T02:19:38.894Z,11.65
2019-04-01T02:24:44.863Z,6.92
2019-04-01T02:29:50.925Z,7.30
2019-04-01T02:34:57.118Z,6.87
2019-04-01T02:40:03.164Z,9.73
2019-04-01T02:45:09.573Z,8.60
2019-04-01T02:50:16.143Z,14.18
2019-04-01T02:55:23.051Z,12.47
2019-04-01T03:00:29.129Z,12.82
2019-04-01T03:05:35.208Z,8.75
2019-04-01T03:10:41.589Z,12.43
2019-04-01T03:15:47.668Z,12.03
2019-04-01T03:20:54.134Z,10.72
2019-04-01T03:26:00.316Z,10.55
2019-04-01T03:31:06.405Z,13.68
2019-04-01T03:36:12.716Z,10.18
2019-04-01T03:41:19.066Z,14.13
2019-04-01T03:46:25.042Z,18.90
2019-04-01T03:51:31.115Z,19.37
2019-04-01T03:56:37.124Z,11.90
2019-04-01T04:01:43.726Z,10.48
2019-04-01T04:06:50.059Z,14.58
2019-04-01T04:11:56.374Z,13.35
2019-04-01T04:17:02.660Z,9.33
2019-04-01T04:22:08.808Z,14.23
2019-04-01T04:27:15.049Z,9.78
2019-04-01T04:32:21.193Z,13.65
2019-04-01T04:37:27.754Z,11.73
2019-04-01T04:42:33.644Z,11.55
2019-04-01T04:47:39.894Z,12.63
2019-04-01T04:52:46.075Z,12.98
2019-04-01T04:57:52.373Z,16.23
2019-04-01T05:02:58.427Z,8.83
2019-04-01T05:08:04.919Z,11.68
2019-04-01T05:13:10.890Z,11.60
2019-04-01T05:18:17.358Z,7.35
2019-04-01T05:23:25.178Z,9.28
2019-04-01T05:28:32.071Z,10.08
2019-04-01T05:33:54.599Z,10.35
2019-04-01T05:38:48.334Z,12.53
2019-04-01T05:43:55.618Z,11.88
2019-04-01T05:49:02.162Z,7.70
2019-04-01T05:54:08.912Z,14.25
2019-04-01T05:59:15.091Z,13.60
2019-04-01T06:04:21.575Z,13.28
2019-04-01T06:09:27.899Z,16.97
2019-04-01T06:14:34.638Z,16.90
2019-04-01T06:19:40.674Z,19.27
2019-04-01T06:24:47.016Z,29.35
2019-04-01T06:29:53.139Z,27.00
2019-04-01T06:34:59.760Z,27.05
2019-04-01T06:40:07.107Z,28.25
2019-04-01T06:45:13.589Z,25.90
2019-04-01T06:50:19.846Z,28.25
2019-04-01T06:55:26.803Z,19.62
2019-04-01T07:00:33.315Z,23.95
2019-04-01T07:05:39.555Z,25.62
2019-04-01T07:10:45.922Z,16.97
2019-04-01T07:15:52.371Z,19.80
2019-04-01T07:20:58.590Z,16.12
2019-04-01T07:26:05.144Z,17.95
2019-04-01T07:31:11.729Z,24.70
2019-04-01T07:36:18.052Z,17.15
2019-04-01T07:41:24.282Z,20.62
2019-04-01T07:46:30.483Z,19.20
2019-04-01T07:51:38.607Z,18.87
2019-04-01T07:56:44.907Z,17.05
2019-04-01T08:01:52.853Z,22.20
2019-04-01T08:06:59.005Z,20.50
2019-04-01T08:12:05.449Z,15.40
2019-04-01T08:17:11.862Z,15.03
2019-04-01T08:22:17.843Z,14.28
2019-04-01T08:27:24.089Z,11.95
2019-04-01T08:32:30.277Z,16.23
2019-04-01T08:37:39.928Z,12.45
2019-04-01T08:42:44.367Z,14.98
2019-04-01T08:47:50.937Z,13.90
2019-04-01T08:52:56.946Z,12.47
2019-04-01T08:58:03.510Z,11.53
2019-04-01T09:03:09.684Z,9.95
2019-04-01T09:08:16.000Z,12.43
2019-04-01T09:13:22.250Z,9.43
2019-04-01T09:18:28.553Z,11.12
2019-04-01T09:23:34.708Z,9.40
2019-04-01T09:28:41.101Z,10.50
2019-04-01T09:33:47.407Z,9.63
2019-04-01T09:38:53.447Z,10.40
2019-04-01T09:43:59.429Z,10.10
2019-04-01T09:49:06.558Z,13.13
2019-04-01T09:54:12.795Z,10.65
2019-04-01T09:59:18.997Z,12.05
2019-04-01T10:04:25.154Z,16.20
2019-04-01T10:09:31.153Z,15.30
2019-04-01T10:14:37.420Z,8.28
2019-04-01T10:19:43.282Z,12.68
2019-04-01T10:24:49.359Z,33.75
2019-04-01T10:29:55.478Z,11.00
2019-04-01T10:35:01.773Z,12.68
2019-04-01T10:40:08.744Z,16.00
2019-04-01T10:45:15.485Z,9.98
2019-04-01T10:50:21.638Z,13.68
2019-04-01T10:55:27.803Z,19.00
2019-04-01T11:00:34.083Z,10.20
2019-04-01T11:05:40.431Z,12.18
2019-04-01T11:10:46.774Z,13.80
2019-04-01T11:15:52.774Z,10.78
2019-04-01T11:20:58.759Z,15.30
2019-04-01T11:26:05.025Z,14.83
2019-04-01T11:31:11.122Z,15.78
2019-04-01T11:36:17.305Z,15.72
2019-04-01T11:41:23.477Z,18.23
2019-04-01T11:46:29.757Z,12.30
2019-04-01T11:51:39.829Z,15.48
2019-04-01T11:56:43.635Z,12.37
2019-04-01T12:01:49.926Z,14.10
2019-04-01T12:06:55.923Z,19.85
2019-04-01T12:12:03.243Z,13.80
2019-04-01T12:17:09.614Z,16.60
2019-04-01T12:22:15.836Z,13.22
2019-04-01T12:27:22.303Z,14.07
2019-04-01T12:32:28.515Z,10.48
2019-04-01T12:37:34.693Z,11.30
2019-04-01T12:42:40.774Z,12.43
2019-04-01T12:47:46.741Z,10.93
2019-04-01T12:52:52.846Z,9.85
2019-04-01T12:57:59.255Z,11.10
2019-04-01T13:03:05.519Z,10.58
2019-04-01T13:08:11.556Z,9.60
2019-04-01T13:13:17.534Z,8.53
2019-04-01T13:18:23.511Z,11.08
2019-04-01T13:23:29.989Z,7.62
2019-04-01T13:28:36.269Z,10.50
2019-04-01T13:33:42.348Z,9.35
2019-04-01T13:38:48.320Z,10.98
2019-04-01T13:43:54.293Z,7.87
2019-04-01T13:49:04.178Z,10.40
2019-04-01T13:54:11.205Z,8.63
2019-04-01T13:59:17.596Z,12.33
2019-04-01T14:04:23.816Z,12.05
2019-04-01T14:09:30.915Z,10.25
2019-04-01T14:14:37.296Z,9.88
2019-04-01T14:19:43.479Z,11.18
2019-04-01T14:24:49.556Z,6.87
2019-04-01T14:29:55.945Z,7.00
2019-04-01T14:35:02.218Z,7.75
2019-04-01T14:40:09.174Z,9.45
2019-04-01T14:45:15.907Z,7.47
2019-04-01T14:50:22.348Z,10.60
2019-04-01T14:55:28.474Z,9.75
2019-04-01T15:00:34.998Z,11.10
2019-04-01T15:05:41.126Z,7.22
2019-04-01T15:10:47.304Z,9.18
2019-04-01T15:15:53.492Z,13.43
2019-04-01T15:20:59.618Z,13.95
2019-04-01T15:26:05.963Z,12.07
2019-04-01T15:31:12.020Z,11.65
2019-04-01T15:36:18.122Z,9.43
2019-04-01T15:41:26.690Z,11.10
2019-04-01T15:46:32.955Z,11.88
2019-04-01T15:51:39.228Z,10.05
2019-04-01T15:56:45.293Z,9.50
2019-04-01T16:01:51.838Z,9.20
2019-04-01T16:06:57.878Z,8.53
2019-04-01T16:12:04.194Z,7.90
2019-04-01T16:17:10.676Z,12.03
2019-04-01T16:22:16.959Z,7.78
2019-04-01T16:27:22.961Z,9.13
2019-04-01T16:32:29.399Z,8.15
2019-04-01T16:37:36.025Z,8.13
2019-04-01T16:42:42.129Z,9.55
2019-04-01T16:47:48.745Z,7.65
2019-04-01T16:52:55.070Z,6.83
2019-04-01T16:58:01.263Z,8.83
2019-04-01T17:03:07.787Z,5.97
2019-04-01T17:08:14.043Z,6.72
2019-04-01T17:13:20.232Z,9.03
2019-04-01T17:18:26.370Z,7.83
2019-04-01T17:23:32.547Z,7.75
2019-04-01T17:28:38.841Z,6.92
2019-04-01T17:33:45.108Z,7.42
2019-04-01T17:38:51.330Z,8.50
2019-04-01T17:43:57.691Z,10.13
2019-04-01T17:49:03.948Z,7.37
2019-04-01T17:54:10.026Z,6.83
2019-04-01T17:59:16.052Z,7.45
2019-04-01T18:04:23.002Z,7.28
2019-04-01T18:09:30.997Z,6.55
2019-04-01T18:14:37.295Z,8.50
2019-04-01T18:19:43.292Z,9.03
2019-04-01T18:24:49.406Z,8.20
2019-04-01T18:29:55.744Z,10.38
2019-04-01T18:35:04.055Z,18.80
2019-04-01T18:40:10.421Z,16.25
2019-04-01T18:45:16.849Z,17.50
2019-04-01T18:50:23.364Z,16.37
2019-04-01T18:55:31.156Z,13.72
2019-04-01T19:00:37.779Z,14.07
2019-04-01T19:05:46.869Z,11.97
2019-04-01T19:11:02.223Z,8.83
2019-04-01T19:16:03.229Z,9.43
2019-04-01T19:21:09.096Z,10.20
2019-04-01T19:26:15.157Z,9.05
2019-04-01T19:31:21.177Z,9.48
2019-04-01T19:36:29.093Z,10.82
2019-04-01T19:41:36.274Z,9.35
2019-04-01T19:46:42.559Z,11.48
2019-04-01T19:51:48.850Z,10.88
2019-04-01T19:56:54.921Z,14.73
2019-04-01T20:02:01.414Z,39.95
2019-04-01T20:07:07.621Z,38.45
2019-04-01T20:12:13.965Z,25.75
2019-04-01T20:17:20.056Z,20.90
2019-04-01T20:22:27.432Z,16.87
2019-04-01T20:27:33.596Z,14.18
2019-04-01T20:32:40.207Z,18.35
2019-04-01T20:37:46.609Z,21.77
2019-04-01T20:42:52.605Z,22.00
2019-04-01T20:47:58.836Z,21.57
2019-04-01T20:53:05.141Z,14.38
2019-04-01T20:58:11.427Z,16.15
2019-04-01T21:03:17.490Z,16.67
2019-04-01T21:08:23.773Z,21.02
2019-04-01T21:13:30.062Z,19.65
2019-04-01T21:18:36.436Z,18.50
2019-04-01T21:23:42.841Z,16.00
2019-04-01T21:28:49.013Z,11.90
2019-04-01T21:33:55.402Z,15.30
2019-04-01T21:39:01.668Z,11.43
2019-04-01T21:44:07.768Z,14.83
2019-04-01T21:49:14.013Z,13.98
2019-04-01T21:54:20.818Z,17.00
2019-04-01T21:59:26.927Z,16.90
2019-04-01T22:04:33.145Z,14.03
2019-04-01T22:09:39.326Z,14.68
2019-04-01T22:14:45.524Z,18.00
2019-04-01T22:19:51.791Z,16.57
2019-04-01T22:24:57.976Z,15.72
2019-04-01T22:30:05.091Z,15.50
2019-04-01T22:35:11.382Z,28.07
2019-04-01T22:40:17.768Z,22.40
2019-04-01T22:45:24.208Z,22.80
2019-04-01T22:50:30.520Z,22.07
2019-04-01T22:55:36.598Z,20.35
2019-04-01T23:00:42.888Z,18.15
2019-04-01T23:05:49.229Z,23.22
2019-04-01T23:10:56.552Z,20.17
2019-04-01T23:16:03.274Z,15.00
2019-04-01T23:21:10.017Z,16.35
2019-04-01T23:26:16.097Z,15.50
2019-04-01T23:31:22.368Z,19.10
2019-04-01T23:36:28.660Z,17.65
2019-04-01T23:41:35.070Z,22.02
2019-04-01T23:46:41.341Z,20.72
2019-04-01T23:51:47.517Z,18.80
2019-04-01T23:56:54.020Z,20.52
